Time;durP1;ratioP1;P1;durP2;ratioP2;P2;SDS_P1;SDS_P2;PMS_P1;PMS_P2;Temp;Humidity;BMP_temperature;BMP_pressure;BME280_temperature;BME280_humidity;BME280_pressure;Samples;Min_cycle;Max_cycle;Signal;HPM_P1;HPM_P2
2022/05/29 00:00:07;;;;;;;16.77;8.80;;;;;;;;;;10392189;28;20420;-78
2022/05/29 00:05:08;;;;;;;22.08;9.85;;;;;;;;;;10391029;28;20036;-75
2022/05/29 00:10:09;;;;;;;29.52;12.40;;;;;;;;;;10390635;28;20021;-77
2022/05/29 00:15:11;;;;;;;24.98;11.98;;;;;;;;;;10408870;28;20433;-75
2022/05/29 00:20:11;;;;;;;33.97;12.07;;;;;;;;;;10390707;28;20544;-77
2022/05/29 00:25:12;;;;;;;31.00;12.63;;;;;;;;;;10391026;28;20029;-77
2022/05/29 00:30:13;;;;;;;35.67;14.13;;;;;;;;;;10400210;28;20470;-75
2022/05/29 00:35:13;;;;;;;22.88;13.60;;;;;;;;;;10399569;28;20029;-73
2022/05/29 00:40:34;;;;;;;30.00;13.43;;;;;;;;;;10399504;28;20052;-74
2022/05/29 00:45:44;;;;;;;32.47;14.35;;;;;;;;;;10397923;28;20347;-73
2022/05/29 00:50:45;;;;;;;27.25;13.18;;;;;;;;;;10399487;28;20014;-78
2022/05/29 00:55:49;;;;;;;36.72;14.13;;;;;;;;;;10399560;28;20364;-77
2022/05/29 01:00:51;;;;;;;35.35;17.65;;;;;;;;;;10397861;28;20021;-78
2022/05/29 01:05:52;;;;;;;30.27;14.07;;;;;;;;;;10398546;28;20041;-79
2022/05/29 01:10:58;;;;;;;29.70;11.63;;;;;;;;;;10400891;28;20464;-75
2022/05/29 01:15:58;;;;;;;26.95;12.68;;;;;;;;;;10416278;28;20032;-73
2022/05/29 01:21:09;;;;;;;26.93;14.30;;;;;;;;;;10398126;28;20536;-75
2022/05/29 01:26:28;;;;;;;24.38;10.32;;;;;;;;;;10396256;28;20030;-75
2022/05/29 01:31:29;;;;;;;25.77;11.20;;;;;;;;;;10395671;28;20032;-78
2022/05/29 01:36:44;;;;;;;15.00;6.57;;;;;;;;;;10397817;28;20029;-75
2022/05/29 01:41:51;;;;;;;18.08;7.90;;;;;;;;;;10413663;28;20100;-77
2022/05/29 01:46:54;;;;;;;16.45;7.78;;;;;;;;;;10416123;28;20100;-76
2022/05/29 01:51:56;;;;;;;15.18;6.55;;;;;;;;;;10396362;28;20513;-76
2022/05/29 01:57:02;;;;;;;10.90;4.97;;;;;;;;;;10396419;28;20562;-76
2022/05/29 02:02:04;;;;;;;12.77;4.95;;;;;;;;;;10388733;28;20021;-77
2022/05/29 02:12:29;;;;;;;11.38;5.13;;;;;;;;;;10410563;28;20025;-81
2022/05/29 02:17:35;;;;;;;20.27;5.15;;;;;;;;;;10404633;28;20416;-74
2022/05/29 02:22:36;;;;;;;14.55;5.03;;;;;;;;;;10412066;28;20040;-77
2022/05/29 02:27:50;;;;;;;14.52;6.43;;;;;;;;;;10429059;28;20099;-75
2022/05/29 02:33:01;;;;;;;12.63;5.15;;;;;;;;;;10456599;28;20029;-73
2022/05/29 02:38:07;;;;;;;23.70;5.93;;;;;;;;;;10412436;28;20445;-74
2022/05/29 02:43:35;;;;;;;17.52;6.07;;;;;;;;;;10428791;28;20021;-75
2022/05/29 02:48:52;;;;;;;9.25;5.00;;;;;;;;;;10408434;28;20465;-73
2022/05/29 02:53:52;;;;;;;14.50;7.00;;;;;;;;;;10445817;28;20059;-75
2022/05/29 02:58:54;;;;;;;15.67;5.47;;;;;;;;;;10446087;28;20021;-72
2022/05/29 03:03:57;;;;;;;14.02;4.13;;;;;;;;;;10446155;28;20051;-75
2022/05/29 03:09:05;;;;;;;11.18;5.57;;;;;;;;;;10427752;28;20021;-73
2022/05/29 03:14:10;;;;;;;12.25;5.55;;;;;;;;;;10428778;28;20515;-73
2022/05/29 03:19:25;;;;;;;17.45;5.53;;;;;;;;;;10427609;28;20055;-73
2022/05/29 03:24:31;;;;;;;14.02;5.13;;;;;;;;;;10427844;28;20043;-75
2022/05/29 03:29:34;;;;;;;17.85;5.38;;;;;;;;;;10427840;28;20025;-73
2022/05/29 03:34:35;;;;;;;14.82;5.50;;;;;;;;;;10428451;28;20067;-78
2022/05/29 03:39:35;;;;;;;14.63;4.90;;;;;;;;;;10427376;28;20135;-72
2022/05/29 03:44:35;;;;;;;10.73;4.60;;;;;;;;;;10426274;28;20492;-75
2022/05/29 03:49:36;;;;;;;12.40;4.88;;;;;;;;;;10426531;28;20017;-73
2022/05/29 03:54:36;;;;;;;9.67;4.80;;;;;;;;;;10426627;28;20013;-76
2022/05/29 03:59:37;;;;;;;13.85;4.38;;;;;;;;;;10426156;28;20098;-73
2022/05/29 04:04:37;;;;;;;9.15;5.15;;;;;;;;;;10429964;28;20421;-76
2022/05/29 04:14:57;;;;;;;11.25;5.78;;;;;;;;;;10452647;28;20099;-76
2022/05/29 04:19:57;;;;;;;10.70;4.38;;;;;;;;;;10433989;28;20021;-73
2022/05/29 04:24:57;;;;;;;13.77;4.35;;;;;;;;;;10434272;28;20035;-72
2022/05/29 04:29:57;;;;;;;13.15;3.85;;;;;;;;;;10452012;28;20028;-73
2022/05/29 04:34:58;;;;;;;7.00;3.50;;;;;;;;;;10451825;28;20031;-73
2022/05/29 04:39:58;;;;;;;7.70;3.67;;;;;;;;;;10451730;28;20052;-72
2022/05/29 04:44:58;;;;;;;11.40;4.37;;;;;;;;;;10451132;28;20031;-74
2022/05/29 04:49:59;;;;;;;10.93;3.43;;;;;;;;;;10433254;28;20017;-74
2022/05/29 04:54:59;;;;;;;8.10;4.68;;;;;;;;;;10422908;28;20041;-74
2022/05/29 05:00:00;;;;;;;9.90;4.05;;;;;;;;;;10392056;28;20025;-74
2022/05/29 05:05:00;;;;;;;9.90;4.13;;;;;;;;;;10391868;28;20043;-74
2022/05/29 05:10:03;;;;;;;9.70;4.80;;;;;;;;;;10390964;28;20094;-73
2022/05/29 05:15:04;;;;;;;9.93;3.28;;;;;;;;;;10373646;28;20018;-73
2022/05/29 05:20:04;;;;;;;8.98;3.40;;;;;;;;;;10389289;28;20460;-72
2022/05/29 05:25:05;;;;;;;16.65;3.42;;;;;;;;;;10388901;28;20105;-77
2022/05/29 05:30:09;;;;;;;9.10;2.85;;;;;;;;;;10388747;28;20025;-73
2022/05/29 05:35:09;;;;;;;9.38;2.72;;;;;;;;;;10403940;28;20032;-73
2022/05/29 05:40:12;;;;;;;7.20;2.70;;;;;;;;;;10388323;28;20424;-74
2022/05/29 05:45:13;;;;;;;11.93;3.10;;;;;;;;;;10388488;28;20017;-73
2022/05/29 05:50:15;;;;;;;8.45;2.90;;;;;;;;;;10388010;28;20603;-75
2022/05/29 05:55:15;;;;;;;9.32;2.70;;;;;;;;;;10388175;28;20025;-77
2022/05/29 06:00:16;;;;;;;11.33;3.17;;;;;;;;;;10387763;28;20021;-74
2022/05/29 06:05:16;;;;;;;12.32;3.63;;;;;;;;;;10387540;28;20390;-73
2022/05/29 06:10:16;;;;;;;15.27;3.40;;;;;;;;;;10406745;28;20036;-73
2022/05/29 06:15:17;;;;;;;10.70;2.77;;;;;;;;;;10388528;28;20036;-76
2022/05/29 06:20:17;;;;;;;6.45;2.28;;;;;;;;;;10406155;28;20076;-76
2022/05/29 06:25:18;;;;;;;10.97;3.40;;;;;;;;;;10387411;28;20433;-76
2022/05/29 06:30:18;;;;;;;7.57;2.90;;;;;;;;;;10387933;28;20095;-73
2022/05/29 06:35:19;;;;;;;16.03;3.20;;;;;;;;;;10388093;28;20475;-77
2022/05/29 06:40:19;;;;;;;7.93;2.53;;;;;;;;;;10403490;28;20045;-73
2022/05/29 06:45:19;;;;;;;5.67;1.73;;;;;;;;;;10387587;28;20057;-75
2022/05/29 06:50:20;;;;;;;10.03;2.30;;;;;;;;;;10386922;28;20024;-74
2022/05/29 06:55:21;;;;;;;6.53;2.63;;;;;;;;;;10386335;28;20025;-73
2022/05/29 07:11:07;;;;;;;9.32;2.15;;;;;;;;;;10401817;28;20033;-77
2022/05/29 07:16:07;;;;;;;10.20;2.37;;;;;;;;;;10402774;28;20032;-75
2022/05/29 07:21:07;;;;;;;12.27;2.30;;;;;;;;;;10422936;28;20037;-78
2022/05/29 07:26:08;;;;;;;6.85;1.60;;;;;;;;;;10395182;28;20036;-72
2022/05/29 07:31:08;;;;;;;7.38;2.55;;;;;;;;;;10409482;28;20036;-73
2022/05/29 07:36:09;;;;;;;11.50;1.43;;;;;;;;;;10393034;28;20040;-74
2022/05/29 07:46:30;;;;;;;8.40;2.28;;;;;;;;;;10377803;28;20350;-74
2022/05/29 07:51:30;;;;;;;13.40;1.93;;;;;;;;;;10400811;28;20025;-80
2022/05/29 07:56:31;;;;;;;12.17;1.70;;;;;;;;;;10398614;28;20206;-73
2022/05/29 08:01:31;;;;;;;12.45;1.58;;;;;;;;;;10418643;28;20525;-78
2022/05/29 08:06:31;;;;;;;11.80;2.60;;;;;;;;;;10404286;28;20041;-73
2022/05/29 08:11:32;;;;;;;7.80;1.40;;;;;;;;;;10415916;28;20045;-76
2022/05/29 08:16:33;;;;;;;7.25;2.13;;;;;;;;;;10419707;28;20100;-76
2022/05/29 08:21:33;;;;;;;9.43;1.87;;;;;;;;;;10401886;28;20082;-73
2022/05/29 08:31:53;;;;;;;10.23;2.10;;;;;;;;;;10411124;28;20309;-78
2022/05/29 08:36:54;;;;;;;20.53;2.07;;;;;;;;;;10417001;28;20532;-76
2022/05/29 08:41:56;;;;;;;8.48;1.65;;;;;;;;;;10401973;28;20536;-76
2022/05/29 08:47:01;;;;;;;11.75;2.13;;;;;;;;;;10381528;28;20025;-73
2022/05/29 08:52:13;;;;;;;7.82;1.98;;;;;;;;;;10424083;28;20025;-78
2022/05/29 08:57:18;;;;;;;3.92;1.27;;;;;;;;;;10408961;28;20055;-72
2022/05/29 09:02:25;;;;;;;4.53;1.42;;;;;;;;;;10429096;28;20040;-73
2022/05/29 09:07:29;;;;;;;8.30;1.63;;;;;;;;;;10413986;28;20083;-71
2022/05/29 09:12:44;;;;;;;6.93;1.67;;;;;;;;;;10399220;28;20573;-76
2022/05/29 09:17:50;;;;;;;8.40;1.60;;;;;;;;;;10427501;28;20112;-78
2022/05/29 09:22:50;;;;;;;8.02;1.40;;;;;;;;;;10425969;28;20025;-74
2022/05/29 09:27:50;;;;;;;6.23;1.60;;;;;;;;;;10395637;28;20030;-73
2022/05/29 09:32:53;;;;;;;9.63;2.33;;;;;;;;;;10397054;28;20041;-70
2022/05/29 09:37:56;;;;;;;10.68;2.33;;;;;;;;;;10396454;28;20413;-77
2022/05/29 09:42:57;;;;;;;5.88;2.53;;;;;;;;;;10419106;28;20433;-72
2022/05/29 09:53:19;;;;;;;13.73;2.17;;;;;;;;;;10411702;28;20048;-71
2022/05/29 09:58:38;;;;;;;10.90;2.58;;;;;;;;;;10394499;28;20398;-72
2022/05/29 10:03:43;;;;;;;9.13;3.78;;;;;;;;;;10395209;28;20505;-73
2022/05/29 10:08:45;;;;;;;4.03;1.83;;;;;;;;;;10410567;28;20018;-72
2022/05/29 10:13:45;;;;;;;10.38;1.65;;;;;;;;;;10386134;28;20060;-72
2022/05/29 10:18:45;;;;;;;5.77;1.87;;;;;;;;;;10386061;28;20778;-72
2022/05/29 10:23:48;;;;;;;5.07;2.75;;;;;;;;;;10386335;28;20057;-72
2022/05/29 10:28:49;;;;;;;14.30;2.13;;;;;;;;;;10402738;28;20064;-73
2022/05/29 10:34:00;;;;;;;9.55;1.90;;;;;;;;;;10385732;28;20117;-73
2022/05/29 10:39:11;;;;;;;11.23;2.20;;;;;;;;;;10405193;28;20049;-76
2022/05/29 10:44:14;;;;;;;16.27;2.42;;;;;;;;;;10386829;28;20375;-72
2022/05/29 10:49:28;;;;;;;8.07;3.38;;;;;;;;;;10404187;28;20018;-72
2022/05/29 10:54:41;;;;;;;11.05;2.15;;;;;;;;;;10380905;28;20471;-77
2022/05/29 11:00:00;;;;;;;10.32;1.95;;;;;;;;;;10445490;28;20027;-75
2022/05/29 11:05:27;;;;;;;8.05;2.88;;;;;;;;;;10427276;28;20040;-73
2022/05/29 11:10:35;;;;;;;18.00;4.30;;;;;;;;;;10426141;28;20021;-76
2022/05/29 11:15:50;;;;;;;11.05;3.92;;;;;;;;;;10446246;28;20060;-75
2022/05/29 11:20:55;;;;;;;8.52;2.63;;;;;;;;;;10361201;28;20080;-76
2022/05/29 11:25:58;;;;;;;13.98;3.75;;;;;;;;;;10344461;28;20029;-72
2022/05/29 11:31:05;;;;;;;14.23;2.97;;;;;;;;;;10362539;28;20049;-76
2022/05/29 11:36:18;;;;;;;8.02;2.30;;;;;;;;;;10344548;28;20030;-76
2022/05/29 11:41:37;;;;;;;10.45;3.08;;;;;;;;;;10343620;28;20046;-76
2022/05/29 11:52:01;;;;;;;10.90;3.10;;;;;;;;;;10361258;28;20354;-77
2022/05/29 11:57:11;;;;;;;12.95;3.85;;;;;;;;;;10405379;28;20037;-77
2022/05/29 12:02:15;;;;;;;7.32;3.38;;;;;;;;;;10390245;28;20113;-76
2022/05/29 12:07:18;;;;;;;12.10;4.78;;;;;;;;;;10400947;28;20029;-72
2022/05/29 12:12:32;;;;;;;12.05;5.20;;;;;;;;;;10401540;28;20092;-78
2022/05/29 12:18:02;;;;;;;17.33;5.07;;;;;;;;;;10400363;28;20029;-74
2022/05/29 12:23:05;;;;;;;13.90;4.90;;;;;;;;;;10367342;28;20033;-76
2022/05/29 12:28:11;;;;;;;10.35;5.82;;;;;;;;;;10407463;28;20067;-76
2022/05/29 12:33:16;;;;;;;10.48;4.95;;;;;;;;;;10391745;28;20029;-72
2022/05/29 12:38:23;;;;;;;13.52;5.88;;;;;;;;;;10407952;28;20556;-75
2022/05/29 12:43:24;;;;;;;17.00;6.53;;;;;;;;;;10407829;28;20108;-73
2022/05/29 12:48:27;;;;;;;13.18;6.65;;;;;;;;;;10390560;28;20025;-76
2022/05/29 12:53:34;;;;;;;19.45;7.50;;;;;;;;;;10393641;28;20404;-77
2022/05/29 12:58:45;;;;;;;15.80;5.78;;;;;;;;;;10431825;28;20107;-80
2022/05/29 13:03:56;;;;;;;17.55;6.47;;;;;;;;;;10430829;28;20037;-76
2022/05/29 13:08:59;;;;;;;18.35;6.03;;;;;;;;;;10431086;28;20355;-78
2022/05/29 13:14:05;;;;;;;15.15;6.13;;;;;;;;;;10432277;28;20440;-78
2022/05/29 13:24:15;;;;;;;17.45;6.57;;;;;;;;;;10442080;28;20493;-77
2022/05/29 13:29:34;;;;;;;16.95;7.18;;;;;;;;;;10389945;28;20053;-77
2022/05/29 13:34:34;;;;;;;13.65;7.13;;;;;;;;;;10389908;28;20092;-75
2022/05/29 13:39:36;;;;;;;17.27;6.93;;;;;;;;;;10405818;28;20586;-77
2022/05/29 13:44:41;;;;;;;17.17;6.43;;;;;;;;;;10405713;28;20112;-78
2022/05/29 13:49:43;;;;;;;11.48;7.13;;;;;;;;;;10405222;28;20039;-75
2022/05/29 13:54:46;;;;;;;18.50;7.07;;;;;;;;;;10416564;28;20047;-75
2022/05/29 14:05:10;;;;;;;13.50;5.63;;;;;;;;;;10446467;28;20033;-75
2022/05/29 14:10:20;;;;;;;16.17;5.70;;;;;;;;;;10396033;28;20022;-71
2022/05/29 14:15:30;;;;;;;15.75;5.85;;;;;;;;;;10387405;28;20386;-76
2022/05/29 14:20:39;;;;;;;12.57;6.22;;;;;;;;;;10387796;28;20397;-74
2022/05/29 14:25:52;;;;;;;17.65;5.55;;;;;;;;;;10405674;28;20025;-74
2022/05/29 14:31:13;;;;;;;18.55;6.00;;;;;;;;;;10371022;28;20599;-74
2022/05/29 14:36:34;;;;;;;16.77;5.93;;;;;;;;;;10404617;28;20384;-77
2022/05/29 14:41:46;;;;;;;13.07;5.10;;;;;;;;;;10402135;28;20061;-77
2022/05/29 14:52:00;;;;;;;11.95;6.20;;;;;;;;;;10403586;28;20118;-77
2022/05/29 14:57:03;;;;;;;16.77;6.32;;;;;;;;;;10417036;28;20106;-70
2022/05/29 15:02:08;;;;;;;18.30;6.13;;;;;;;;;;10444533;28;20037;-77
2022/05/29 15:12:38;;;;;;;12.15;6.18;;;;;;;;;;10446010;28;20066;-72
2022/05/29 15:17:38;;;;;;;11.35;5.03;;;;;;;;;;10426083;28;20083;-74
2022/05/29 15:27:58;;;;;;;8.23;3.53;;;;;;;;;;10444893;28;20028;-75
2022/05/29 15:33:05;;;;;;;11.50;3.95;;;;;;;;;;10430779;28;20025;-73
2022/05/29 15:38:25;;;;;;;8.65;3.70;;;;;;;;;;10384579;28;20249;-74
2022/05/29 15:43:28;;;;;;;9.00;3.13;;;;;;;;;;10399484;28;20045;-72
2022/05/29 15:48:53;;;;;;;7.30;1.83;;;;;;;;;;10384089;28;20064;-72
2022/05/29 15:54:08;;;;;;;5.18;1.40;;;;;;;;;;10388575;28;20405;-72
2022/05/29 15:59:20;;;;;;;10.85;1.83;;;;;;;;;;10423897;28;20031;-72
2022/05/29 16:04:31;;;;;;;5.00;3.25;;;;;;;;;;10425105;28;20112;-72
2022/05/29 16:09:51;;;;;;;7.80;2.03;;;;;;;;;;10442621;28;20029;-72
2022/05/29 16:14:53;;;;;;;4.72;1.92;;;;;;;;;;10419323;28;20524;-76
2022/05/29 16:19:56;;;;;;;4.03;1.92;;;;;;;;;;10384052;28;20448;-75
2022/05/29 16:25:02;;;;;;;4.65;2.20;;;;;;;;;;10383646;28;20052;-75
2022/05/29 16:30:19;;;;;;;6.95;2.63;;;;;;;;;;10383623;28;20112;-75
2022/05/29 16:35:21;;;;;;;8.13;2.83;;;;;;;;;;10401924;28;20595;-77
2022/05/29 16:51:25;;;;;;;5.32;1.52;;;;;;;;;;10375613;28;20046;-76
2022/05/29 16:56:25;;;;;;;7.73;1.87;;;;;;;;;;10407418;28;20441;-76
2022/05/29 17:01:27;;;;;;;6.57;2.03;;;;;;;;;;10402649;28;20136;-76
2022/05/29 17:06:32;;;;;;;2.90;1.77;;;;;;;;;;10398527;28;20524;-75
2022/05/29 17:11:33;;;;;;;3.42;1.77;;;;;;;;;;10383870;28;20025;-71
2022/05/29 17:16:33;;;;;;;5.47;3.25;;;;;;;;;;10387502;28;20048;-73
2022/05/29 17:21:36;;;;;;;3.73;2.27;;;;;;;;;;10403349;28;20459;-73
2022/05/29 17:26:36;;;;;;;2.85;1.80;;;;;;;;;;10404662;28;20040;-74
2022/05/29 17:31:53;;;;;;;4.20;2.75;;;;;;;;;;10387396;28;20037;-73
2022/05/29 17:37:04;;;;;;;2.85;2.22;;;;;;;;;;10403424;28;20108;-70
2022/05/29 17:42:22;;;;;;;10.68;2.95;;;;;;;;;;10538568;27;20401;-77
2022/05/29 17:47:22;;;;;;;2.75;2.15;;;;;;;;;;10538631;28;20452;-75
2022/05/29 17:52:41;;;;;;;4.82;2.55;;;;;;;;;;10537522;28;20036;-76
2022/05/29 17:57:45;;;;;;;6.70;3.20;;;;;;;;;;10541162;28;20053;-73
2022/05/29 18:02:46;;;;;;;6.57;3.35;;;;;;;;;;10551196;28;20598;-72
2022/05/29 18:07:46;;;;;;;4.13;2.72;;;;;;;;;;10527900;28;20024;-72
2022/05/29 18:12:46;;;;;;;7.30;4.00;;;;;;;;;;10522902;28;20406;-75
2022/05/29 18:17:47;;;;;;;8.97;3.67;;;;;;;;;;10524069;28;20036;-75
2022/05/29 18:22:48;;;;;;;11.63;4.60;;;;;;;;;;10523190;28;20028;-76
2022/05/29 18:27:48;;;;;;;7.35;4.05;;;;;;;;;;10525729;28;20446;-79
2022/05/29 18:32:49;;;;;;;12.77;4.63;;;;;;;;;;10526896;28;20031;-72
2022/05/29 18:37:50;;;;;;;9.37;4.77;;;;;;;;;;10523895;28;20532;-76
2022/05/29 18:42:51;;;;;;;7.32;4.63;;;;;;;;;;10527706;28;20562;-78
2022/05/29 18:47:52;;;;;;;7.63;3.83;;;;;;;;;;10533964;28;20116;-76
2022/05/29 18:52:52;;;;;;;6.80;4.47;;;;;;;;;;10497960;28;20024;-72
2022/05/29 18:57:52;;;;;;;9.82;4.57;;;;;;;;;;10497012;28;20035;-72
2022/05/29 19:02:56;;;;;;;6.70;3.65;;;;;;;;;;10493529;28;20031;-73
2022/05/29 19:07:56;;;;;;;12.48;5.07;;;;;;;;;;10493905;28;20039;-76
2022/05/29 19:12:56;;;;;;;7.55;4.35;;;;;;;;;;10491248;28;20412;-71
2022/05/29 19:18:15;;;;;;;9.20;4.90;;;;;;;;;;10495770;28;20505;-72
2022/05/29 19:23:16;;;;;;;;;;;;;;;;;;10498094;28;20404;-76
2022/05/29 19:28:16;;;;;;;7.25;3.53;;;;;;;;;;10501866;28;19912;-75
2022/05/29 19:33:17;;;;;;;8.55;4.18;;;;;;;;;;10492463;28;20020;-75
2022/05/29 19:38:17;;;;;;;8.40;5.00;;;;;;;;;;10493931;28;20072;-75
2022/05/29 19:43:17;;;;;;;8.82;4.13;;;;;;;;;;10496954;28;20027;-75
2022/05/29 19:48:18;;;;;;;7.85;4.57;;;;;;;;;;10490906;28;20024;-76
2022/05/29 19:53:18;;;;;;;9.10;5.00;;;;;;;;;;10495621;28;20413;-75
2022/05/29 19:58:18;;;;;;;8.75;5.03;;;;;;;;;;10496294;28;20039;-74
2022/05/29 20:03:18;;;;;;;7.05;4.72;;;;;;;;;;10492680;28;20550;-72
2022/05/29 20:08:19;;;;;;;10.65;5.63;;;;;;;;;;10496108;28;20050;-72
2022/05/29 20:13:19;;;;;;;10.73;5.47;;;;;;;;;;10498556;28;20028;-76
2022/05/29 20:18:20;;;;;;;10.35;6.05;;;;;;;;;;10500492;28;20086;-74
2022/05/29 20:23:20;;;;;;;10.05;6.30;;;;;;;;;;10497096;28;20025;-76
2022/05/29 20:28:20;;;;;;;12.55;6.45;;;;;;;;;;10492224;28;20063;-72
2022/05/29 20:33:21;;;;;;;14.38;7.07;;;;;;;;;;10493043;28;20034;-73
2022/05/29 20:38:21;;;;;;;8.18;5.10;;;;;;;;;;10494083;28;20052;-72
2022/05/29 20:43:22;;;;;;;10.57;6.07;;;;;;;;;;10492582;28;20025;-72
2022/05/29 20:48:22;;;;;;;7.25;5.00;;;;;;;;;;10491888;28;20021;-77
2022/05/29 20:53:22;;;;;;;8.43;5.25;;;;;;;;;;10491056;28;20028;-72
2022/05/29 20:58:22;;;;;;;9.95;5.60;;;;;;;;;;10493296;28;20107;-73
2022/05/29 21:03:23;;;;;;;12.65;5.55;;;;;;;;;;10490819;28;20540;-73
2022/05/29 21:08:23;;;;;;;12.70;6.68;;;;;;;;;;10487747;28;20108;-72
2022/05/29 21:13:23;;;;;;;12.38;6.18;;;;;;;;;;10490565;28;20024;-72
2022/05/29 21:18:23;;;;;;;12.07;8.00;;;;;;;;;;10503033;28;20055;-73
2022/05/29 21:23:24;;;;;;;11.30;6.07;;;;;;;;;;10489575;28;20262;-72
2022/05/29 21:28:24;;;;;;;15.55;7.45;;;;;;;;;;10491992;28;20567;-73
2022/05/29 21:33:28;;;;;;;13.07;6.70;;;;;;;;;;10490241;28;20648;-73
2022/05/29 21:38:29;;;;;;;16.60;6.63;;;;;;;;;;10505510;28;20044;-77
2022/05/29 21:43:30;;;;;;;15.50;7.68;;;;;;;;;;10501952;28;20037;-74
2022/05/29 21:48:30;;;;;;;16.20;6.72;;;;;;;;;;10502919;28;20034;-76
2022/05/29 21:53:31;;;;;;;10.97;6.90;;;;;;;;;;10502125;28;20500;-76
2022/05/29 21:58:31;;;;;;;12.57;7.40;;;;;;;;;;10501217;28;20028;-75
2022/05/29 22:03:33;;;;;;;11.53;6.27;;;;;;;;;;10502570;28;20248;-77
2022/05/29 22:08:34;;;;;;;16.38;9.00;;;;;;;;;;10501365;28;20271;-74
2022/05/29 22:13:35;;;;;;;17.95;9.00;;;;;;;;;;10502627;28;20028;-74
2022/05/29 22:18:35;;;;;;;18.73;9.17;;;;;;;;;;10503044;28;20025;-77
2022/05/29 22:23:37;;;;;;;22.30;10.13;;;;;;;;;;10503140;28;20024;-77
2022/05/29 22:28:38;;;;;;;27.45;9.98;;;;;;;;;;10505811;28;20050;-73
2022/05/29 22:33:45;;;;;;;15.43;8.25;;;;;;;;;;10508572;28;20117;-72
2022/05/29 22:38:45;;;;;;;14.23;7.33;;;;;;;;;;10507244;28;20133;-68
2022/05/29 22:43:46;;;;;;;10.63;5.47;;;;;;;;;;10507566;28;20460;-78
2022/05/29 22:48:46;;;;;;;13.17;6.90;;;;;;;;;;10506948;28;20082;-74
2022/05/29 22:53:46;;;;;;;12.02;6.95;;;;;;;;;;10508419;28;20274;-75
2022/05/29 22:58:47;;;;;;;14.68;6.63;;;;;;;;;;10491651;28;20021;-73
2022/05/29 23:04:01;;;;;;;9.25;5.65;;;;;;;;;;10488613;28;20036;-73
2022/05/29 23:09:02;;;;;;;10.25;6.35;;;;;;;;;;10478732;28;20025;-76
2022/05/29 23:14:02;;;;;;;11.40;6.67;;;;;;;;;;10488814;28;20024;-75
2022/05/29 23:19:02;;;;;;;21.80;6.50;;;;;;;;;;10459174;28;20279;-72
2022/05/29 23:24:04;;;;;;;11.47;6.50;;;;;;;;;;10449242;28;20024;-73
2022/05/29 23:29:04;;;;;;;13.00;6.32;;;;;;;;;;10500292;28;20262;-72
2022/05/29 23:34:05;;;;;;;13.45;6.93;;;;;;;;;;10487460;28;20603;-74
2022/05/29 23:39:05;;;;;;;10.45;6.60;;;;;;;;;;10488319;28;20051;-73
2022/05/29 23:44:06;;;;;;;7.88;5.38;;;;;;;;;;10488161;28;20123;-76
2022/05/29 23:49:06;;;;;;;8.25;5.68;;;;;;;;;;10487131;28;20013;-74
2022/05/29 23:54:06;;;;;;;8.53;5.30;;;;;;;;;;10489626;28;20106;-74
2022/05/29 23:59:07;;;;;;;7.60;5.13;;;;;;;;;;10510575;28;20016;-75
